Stewartville, MN (55976)

10:23 AM CDT on May 06, 2015 (GMT -0500)
KMNSTEWA3 | | Change Station
CLOSE
Current Station
Personal Weather Station
Location: Stewartville, MN
Elevation: 1253 ft
Nearby Weather Stations
Active Advisory: Special Statement Active Notice: Public Information Statement

Elev 1253 ft 43.84 °N, 92.48 °W | Updated 14 minutes ago

Fog
Fog
56.6 °F
Feels Like 56.6 °F
N
4.0
Wind Variable Wind from East
Gusts 12.0 mph

Today
High -- | Low -- °F
--% Chance of Precip.
Yesterday
High -- | Low -- °F
Precip. -- in
5:55 AM 8:18 PM
Waning Gibbous, 94% visible
Pressure 30.07 in
Visibility 3.0 miles
Clouds Overcast 400 ft
Dew Point 56 °F
Humidity 97%
Rainfall 0.00 in
Snow Depth Not available.
UV 2 out of 12
Pollen 9.60 out of 12
Air Quality Not available.
Flu Activity Sporadic
SPECI KRST 061514Z 13014KT 3SM BR OVC004 14/14 A3007 RMK AO2 T01440139

More Conditions Fewer Conditions

Pressure 30.07 in
Visibility 3.0 miles
Clouds Overcast 400 ft
Dew Point 56 °F
Humidity 97%
Rainfall 0.00 in
Snow Depth Not available.
UV 2 out of 12
Pollen 9.60 out of 12
Air Quality Not available.
Flu Activity Sporadic
SPECI KRST 061514Z 13014KT 3SM BR OVC004 14/14 A3007 RMK AO2 T01440139

More Conditions Fewer Conditions

10-Day Weather Forecast

Almanac

Astronomy

May. 06, 2015 Rise Set
Actual Time
Civil Twilight
Nautical Twilight
Astronomical Twilight
Moon
Length of Visible Light
Length of Day
Tomorrow will be .
, % of the Moon is Illuminated

Today's Extremes

State Highs State Lows

Community

WunderPhotos

Upload Photos

1,818,929 photos uploaded!

WunderBlogs® & News

Nearby

Air Quality

  Air Quality AQ Index Pollutant
Not available.

Snow Depth

Station Depth Elevation

Earthquake Activity

City Distance Mag. Time & Date
Minimum magnitude displayed is 2.5.

Coastal Water Temperatures

Place Temperature

Stations

Nearby Weather Stations

Station Location Temp. Windchill Dew Point Humidity Wind Precip. Elev Updated Type
                   
Special Statement
Statement as of 9:12 AM CDT on May 06, 2015

... Patchy fog rest of the morning...

The areas of dense fog across portions of the region have been
lifting... with an accompanying improvement in visibilities. The
improving trends will continue for the rest of the morning hours.
Motorists should still anticipate a few pockets of thick fog until
noon.


Rieck


912 am CDT Wed may 6 2015

... Patchy fog rest of the morning...

The areas of dense fog across portions of the region have been
lifting... with an accompanying improvement in visibilities. The
improving trends will continue for the rest of the morning hours.
Motorists should still anticipate a few pockets of thick fog until
noon.


Rieck